createdAt,value
2022-10-23T00:04:59.194Z,71.83
2022-10-23T00:10:06.190Z,71.63
2022-10-23T00:15:16.265Z,71.62
2022-10-23T00:20:19.919Z,71.40
2022-10-23T00:25:23.877Z,71.19
2022-10-23T00:30:27.523Z,71.11
2022-10-23T00:35:32.297Z,70.97
2022-10-23T00:40:37.683Z,70.99
2022-10-23T00:45:40.932Z,70.91
2022-10-23T00:50:46.720Z,70.76
2022-10-23T00:55:53.310Z,70.66
2022-10-23T01:00:57.372Z,70.73
2022-10-23T01:06:05.129Z,70.81
2022-10-23T01:11:15.192Z,70.86
2022-10-23T01:16:31.959Z,70.82
2022-10-23T01:21:54.875Z,70.88
2022-10-23T01:27:12.543Z,70.84
2022-10-23T01:32:27.637Z,70.94
2022-10-23T01:37:45.975Z,70.67
2022-10-23T01:42:55.163Z,70.43
2022-10-23T01:48:04.728Z,70.08
2022-10-23T01:53:09.278Z,69.77
2022-10-23T01:58:15.322Z,69.47
2022-10-23T02:03:20.679Z,69.14
2022-10-23T02:08:24.682Z,68.80
2022-10-23T02:13:39.719Z,68.63
2022-10-23T02:19:00.822Z,68.88
2022-10-23T02:24:11.635Z,68.82
2022-10-23T02:29:59.687Z,68.93
2022-10-23T02:35:04.375Z,69.02
2022-10-23T02:40:10.012Z,68.95
2022-10-23T02:46:05.315Z,69.13
2022-10-23T02:51:48.919Z,68.75
2022-10-23T02:57:26.728Z,68.96
2022-10-23T03:02:41.758Z,69.25
2022-10-23T03:07:47.320Z,69.09
2022-10-23T03:12:53.577Z,69.13
2022-10-23T03:17:57.505Z,69.01
2022-10-23T03:23:00.904Z,69.19
2022-10-23T03:28:04.458Z,69.33
2022-10-23T03:33:11.595Z,69.12
2022-10-23T03:38:15.719Z,69.22
2022-10-23T03:43:19.465Z,69.28
2022-10-23T03:48:23.118Z,69.27
2022-10-23T03:53:26.371Z,69.67
2022-10-23T03:58:29.858Z,69.28
2022-10-23T04:03:33.391Z,69.86
2022-10-23T04:08:37.468Z,69.48
2022-10-23T04:13:47.398Z,69.57
2022-10-23T04:18:53.017Z,69.63
2022-10-23T04:23:59.890Z,69.66
2022-10-23T04:29:03.412Z,69.27
2022-10-23T04:39:15.531Z,69.14
2022-10-23T04:44:18.931Z,69.06
2022-10-23T04:49:22.737Z,68.79
2022-10-23T04:54:47.595Z,68.73
2022-10-23T05:00:06.013Z,68.80
2022-10-23T05:05:17.819Z,68.73
2022-10-23T05:10:28.046Z,68.55
2022-10-23T05:15:38.079Z,68.40
2022-10-23T05:20:42.460Z,67.97
2022-10-23T05:25:47.235Z,67.46
2022-10-23T05:31:01.247Z,67.07
2022-10-23T05:36:06.144Z,66.68
2022-10-23T05:41:10.474Z,66.24
2022-10-23T05:46:16.690Z,65.70
2022-10-23T05:51:42.209Z,64.70
2022-10-23T05:56:57.699Z,63.21
2022-10-23T06:02:22.851Z,63.12
2022-10-23T06:07:36.328Z,62.57
2022-10-23T06:12:42.430Z,61.99
2022-10-23T06:17:50.223Z,61.65
2022-10-23T06:22:54.083Z,60.60
2022-10-23T06:28:18.311Z,60.00
2022-10-23T06:33:24.800Z,59.26
2022-10-23T06:38:28.898Z,58.33
2022-10-23T06:43:34.357Z,58.20
2022-10-23T06:49:00.539Z,57.96
2022-10-23T06:54:08.928Z,57.10
2022-10-23T06:59:27.399Z,57.13
2022-10-23T07:04:32.092Z,56.83
2022-10-23T07:09:37.411Z,56.03
2022-10-23T07:14:49.481Z,55.59
2022-10-23T07:19:53.518Z,55.01
2022-10-23T07:24:57.101Z,55.20
2022-10-23T07:30:11.765Z,54.58
2022-10-23T07:35:21.858Z,54.50
2022-10-23T07:40:39.440Z,53.92
2022-10-23T07:45:48.486Z,53.91
2022-10-23T07:51:03.690Z,53.74
2022-10-23T07:56:22.564Z,53.78
2022-10-23T08:01:55.704Z,53.82
2022-10-23T08:07:04.425Z,53.53
2022-10-23T08:12:14.246Z,52.92
2022-10-23T08:17:17.930Z,52.86
2022-10-23T08:22:51.751Z,52.93
2022-10-23T08:28:03.098Z,52.56
2022-10-23T08:33:15.492Z,52.35
2022-10-23T08:38:20.506Z,51.66
2022-10-23T08:43:42.519Z,52.03
2022-10-23T08:49:26.958Z,52.00
2022-10-23T08:54:45.339Z,51.63
2022-10-23T09:00:00.435Z,52.21
2022-10-23T09:05:09.789Z,52.04
2022-10-23T09:10:37.853Z,51.91
2022-10-23T09:15:47.759Z,52.06
2022-10-23T09:20:55.048Z,52.15
2022-10-23T09:26:02.605Z,52.44
2022-10-23T09:31:10.491Z,52.25
2022-10-23T09:36:13.921Z,52.47
2022-10-23T09:41:30.918Z,52.77
2022-10-23T09:47:08.017Z,52.73
2022-10-23T09:52:11.264Z,53.14
2022-10-23T09:57:27.629Z,53.71
2022-10-23T10:02:33.962Z,53.78
2022-10-23T10:07:59.564Z,54.13
2022-10-23T10:13:28.890Z,54.67
2022-10-23T10:18:57.044Z,54.82
2022-10-23T10:24:05.617Z,54.99
2022-10-23T10:29:30.645Z,54.70
2022-10-23T10:34:59.139Z,55.44
2022-10-23T10:40:26.902Z,55.14
2022-10-23T10:45:52.787Z,55.79
2022-10-23T10:51:08.529Z,55.92
2022-10-23T10:56:28.221Z,56.22
2022-10-23T11:01:47.112Z,56.72
2022-10-23T11:06:54.474Z,56.52
2022-10-23T11:11:58.487Z,56.54
2022-10-23T11:17:11.449Z,57.07
2022-10-23T11:22:31.049Z,57.81
2022-10-23T11:27:44.234Z,58.20
2022-10-23T11:33:07.570Z,58.33
2022-10-23T11:38:25.019Z,58.17
2022-10-23T11:43:31.275Z,58.25
2022-10-23T11:48:38.739Z,57.73
2022-10-23T11:53:43.289Z,57.78
2022-10-23T11:58:51.110Z,57.74
2022-10-23T12:04:04.373Z,57.97
2022-10-23T12:09:42.419Z,57.68
2022-10-23T12:14:51.150Z,57.77
2022-10-23T12:20:01.794Z,57.87
2022-10-23T12:25:15.915Z,58.26
2022-10-23T12:30:36.805Z,58.09
2022-10-23T12:36:06.499Z,57.73
2022-10-23T12:41:17.168Z,58.24
2022-10-23T12:46:42.473Z,58.20
2022-10-23T12:51:59.496Z,58.86
2022-10-23T12:57:02.903Z,58.71
2022-10-23T13:02:23.410Z,58.67
2022-10-23T13:07:30.053Z,58.63
2022-10-23T13:12:38.914Z,58.64
2022-10-23T13:17:48.815Z,59.66
2022-10-23T13:23:19.106Z,60.47
2022-10-23T13:28:29.055Z,62.43
2022-10-23T13:33:39.747Z,63.64
2022-10-23T13:39:00.398Z,64.66
2022-10-23T13:44:03.712Z,65.32
2022-10-23T13:49:07.345Z,65.55
2022-10-23T13:54:15.675Z,65.81
2022-10-23T13:59:30.195Z,65.87
2022-10-23T14:04:34.403Z,66.08
2022-10-23T14:09:37.882Z,66.43
2022-10-23T14:14:42.741Z,66.37
2022-10-23T14:19:46.299Z,66.60
2022-10-23T14:24:50.886Z,66.77
2022-10-23T14:29:54.123Z,66.88
2022-10-23T14:34:57.363Z,66.90
2022-10-23T14:40:01.246Z,66.84
2022-10-23T14:45:07.338Z,66.90
2022-10-23T14:50:12.109Z,66.96
2022-10-23T14:55:15.335Z,66.91
2022-10-23T15:00:19.571Z,67.29
2022-10-23T15:05:23.075Z,67.55
2022-10-23T15:10:27.109Z,67.68
2022-10-23T15:15:32.382Z,67.39
2022-10-23T15:20:36.315Z,67.28
2022-10-23T15:25:39.507Z,67.14
2022-10-23T15:30:43.757Z,66.87
2022-10-23T15:35:49.706Z,66.56
2022-10-23T15:41:00.236Z,66.46
2022-10-23T15:46:06.471Z,66.51
2022-10-23T15:51:10.364Z,66.39
2022-10-23T15:56:13.725Z,66.53
2022-10-23T16:01:16.887Z,66.30
2022-10-23T16:06:21.285Z,66.16
2022-10-23T16:11:36.460Z,65.93
2022-10-23T16:16:39.769Z,65.84
2022-10-23T16:21:43.127Z,65.27
2022-10-23T16:26:46.701Z,65.14
2022-10-23T16:31:50.422Z,65.09
2022-10-23T16:36:53.857Z,64.77
2022-10-23T16:42:10.903Z,65.00
2022-10-23T16:47:44.626Z,65.01
2022-10-23T16:52:49.912Z,64.87
2022-10-23T16:57:55.555Z,64.70
2022-10-23T17:02:58.706Z,64.43
2022-10-23T17:08:02.281Z,64.04
2022-10-23T17:13:05.732Z,63.68
2022-10-23T17:18:09.207Z,63.54
2022-10-23T17:23:12.994Z,63.70
2022-10-23T17:28:16.460Z,63.39
2022-10-23T17:33:20.163Z,63.23
2022-10-23T17:38:24.827Z,63.33
2022-10-23T17:43:28.508Z,63.44
2022-10-23T17:48:32.011Z,63.63
2022-10-23T17:53:37.960Z,63.53
2022-10-23T17:58:41.838Z,63.66
2022-10-23T18:03:45.530Z,63.70
2022-10-23T18:08:49.909Z,64.35
2022-10-23T18:13:54.635Z,64.94
2022-10-23T18:19:01.054Z,65.64
2022-10-23T18:24:04.857Z,66.07
2022-10-23T18:29:09.693Z,66.37
2022-10-23T18:34:24.130Z,66.66
2022-10-23T18:39:27.893Z,66.62
2022-10-23T18:44:31.270Z,66.96
2022-10-23T18:49:35.271Z,67.13
2022-10-23T18:54:38.584Z,67.19
2022-10-23T18:59:41.864Z,67.45
2022-10-23T19:04:45.194Z,67.44
2022-10-23T19:09:48.959Z,67.81
2022-10-23T19:14:53.128Z,67.80
2022-10-23T19:20:03.733Z,67.57
2022-10-23T19:25:31.275Z,67.71
2022-10-23T19:30:35.291Z,68.18
2022-10-23T19:35:38.517Z,68.28
2022-10-23T19:40:41.961Z,68.34
2022-10-23T19:45:45.416Z,68.50
2022-10-23T19:50:48.620Z,68.74
2022-10-23T19:55:53.108Z,68.69
2022-10-23T20:00:57.022Z,68.98
2022-10-23T20:06:00.911Z,68.69
2022-10-23T20:11:04.432Z,68.85
2022-10-23T20:16:10.453Z,68.71
2022-10-23T20:21:22.868Z,68.63
2022-10-23T20:26:26.514Z,68.59
2022-10-23T20:31:29.970Z,68.50
2022-10-23T20:36:36.465Z,68.72
2022-10-23T20:41:42.642Z,68.53
2022-10-23T20:46:50.374Z,68.40
2022-10-23T20:51:56.074Z,68.52
2022-10-23T20:56:59.404Z,68.83
2022-10-23T21:02:02.667Z,68.97
2022-10-23T21:07:10.827Z,68.82
2022-10-23T21:12:16.237Z,68.80
2022-10-23T21:17:22.601Z,69.01
2022-10-23T21:22:26.090Z,68.99
2022-10-23T21:27:29.723Z,68.86
2022-10-23T21:32:33.660Z,69.04
2022-10-23T21:37:37.180Z,68.99
2022-10-23T21:42:40.751Z,69.17
2022-10-23T21:47:44.490Z,68.98
2022-10-23T21:52:53.065Z,69.13
2022-10-23T21:57:57.360Z,69.11
2022-10-23T22:03:00.825Z,69.05
2022-10-23T22:08:04.407Z,68.87
2022-10-23T22:13:07.639Z,68.81
2022-10-23T22:18:10.918Z,69.01
2022-10-23T22:23:14.315Z,68.75
2022-10-23T22:28:17.899Z,68.40
2022-10-23T22:33:22.739Z,68.14
2022-10-23T22:38:31.764Z,68.07
2022-10-23T22:43:35.217Z,68.34
2022-10-23T22:48:40.273Z,68.05
2022-10-23T22:53:44.624Z,67.78
2022-10-23T22:58:48.477Z,67.76
2022-10-23T23:03:52.180Z,67.50
2022-10-23T23:08:56.687Z,67.30
2022-10-23T23:14:01.378Z,67.30
2022-10-23T23:19:05.043Z,67.11
2022-10-23T23:24:10.333Z,67.18
2022-10-23T23:29:14.505Z,67.13
2022-10-23T23:34:18.166Z,66.83
2022-10-23T23:39:21.819Z,66.99
2022-10-23T23:44:26.217Z,66.82
2022-10-23T23:49:29.770Z,66.83
2022-10-23T23:54:33.298Z,66.83
2022-10-23T23:59:41.894Z,66.93
